West Lafayette, IN

2:28 PM EST on January 17, 2017 (GMT -0500)
Lindberg Village | | Change Station
Active Advisory: Flood Warning

Elev 614 ft 40.45 °N, 86.97 °W | Updated 3 minutes ago

Overcast
Overcast
43.0 °F
Feels Like 43 °F
N
2.0
Wind Variable Wind from NE
Gusts 3.2 mph

Today
High -- | Low -- °F
--% Chance of Precip.
Yesterday
High -- | Low -- °F
Precip. -- in
Pressure 29.91 in
Visibility 2.5 miles
Clouds Overcast 800 ft
Windchill 43 °F
Dew Point 43 °F
Humidity 99%
Rainfall 0.23 in
Snow Depth Not available.
8:07 AM 5:48 PM
Waning Gibbous, 70% visible
METAR KLAF 171854Z 24008KT 2 1/2SM BR OVC008 06/06 A2991 RMK AO2 CIG 005V011 SLP129 T00610056
Pressure 29.91 in
Visibility 2.5 miles
Clouds Overcast 800 ft
Windchill 43 °F
Dew Point 43 °F
Humidity 99%
Rainfall 0.23 in
Snow Depth Not available.
8:07 AM 5:48 PM
Waning Gibbous, 70% visible
METAR KLAF 171854Z 24008KT 2 1/2SM BR OVC008 06/06 A2991 RMK AO2 CIG 005V011 SLP129 T00610056

Get Your Daily Forecast Email!

Thanks for signing up!

Be on the lookout for a verification email in your inbox.

You'll start receiving the daily forecast at 8 AM.

×

10-Day Weather Forecast

Almanac

Astronomy

Jan. 17, 2017 Rise Set
Actual Time
Civil Twilight
Nautical Twilight
Astronomical Twilight
Moon
Length of Visible Light
Length of Day
Tomorrow will be .
, % of the Moon is Illuminated

Today's Extremes

State Highs State Lows

Community

WunderPhotos

Upload Photos

1,962,540 photos uploaded!

WunderBlog® & News

Nearby

Air Quality

  Air Quality AQ Index Pollutant
Not available.

Snow Depth

Station Depth Elevation

Earthquake Activity

City Distance Mag. Time & Date
Minimum magnitude displayed is 2.5.

Coastal Water Temperatures

Place Temperature

Stations

Nearby Weather Stations

Station Location Temp. Windchill Dew Point Humidity Wind Precip. Elev Updated Type
                   

Watches & Warnings

Flood Warning
Issued: 4:51 PM GMT Jan. 17, 2017 – National Weather Service

The Flood Warning continues for
the Wabash River at Lafayette.
* Until Friday evening.
* At 10:30 am Tuesday the stage was 10.7 feet.
* Flood stage is 11.0 feet.
* Minor flooding is forecast.
* Forecast... rise above flood stage by this afternoon and continue to
rise to near 13.1 feet by tomorrow evening. The river will fall
below flood stage by Friday morning.
* At 14.0 feet... lowland flooding is in progress. High water affects
river Cabins near north 9th street. Low County roads are nearly
impassable. Tapawingo park in West Lafayette begins to flood.


Lat... Lon 4056 8673 4048 8688 4040 8709 4033 8709
      4040 8688 4054 8670